Time;durP1;ratioP1;P1;durP2;ratioP2;P2;SDS_P1;SDS_P2;PMS_P1;PMS_P2;Temp;Humidity;BMP_temperature;BMP_pressure;BME280_temperature;BME280_humidity;BME280_pressure;Samples;Min_cycle;Max_cycle;Signal;HPM_P1;HPM_P2
2023/08/04 00:00:14;;;;;;;8.07;5.00;;;;;;;12.87;100.00;100754.84;5043309;28;20051;-81
2023/08/04 00:02:40;;;;;;;8.70;4.72;;;;;;;12.95;100.00;100751.91;5047840;28;20052;-82
2023/08/04 00:05:06;;;;;;;9.27;4.97;;;;;;;13.06;100.00;100758.47;5050364;28;20393;-81
2023/08/04 00:07:35;;;;;;;8.43;4.63;;;;;;;13.06;100.00;100750.38;5043248;28;20029;-81
2023/08/04 00:10:01;;;;;;;8.15;4.78;;;;;;;13.12;100.00;100756.81;5044141;28;20072;-82
2023/08/04 00:12:26;;;;;;;8.35;4.80;;;;;;;13.03;100.00;100761.63;5041640;28;20034;-81
2023/08/04 00:14:52;;;;;;;9.07;4.95;;;;;;;13.02;100.00;100760.78;5036579;28;20036;-82
2023/08/04 00:17:17;;;;;;;9.82;5.03;;;;;;;13.04;100.00;100760.59;5040838;28;20033;-82
2023/08/04 00:19:43;;;;;;;9.88;5.00;;;;;;;13.08;100.00;100755.59;5045791;28;20515;-82
2023/08/04 00:22:08;;;;;;;9.30;4.97;;;;;;;13.05;100.00;100762.25;5035668;28;20030;-82
2023/08/04 00:24:34;;;;;;;10.43;4.80;;;;;;;13.07;100.00;100773.66;5042174;28;20376;-82
2023/08/04 00:26:59;;;;;;;9.20;4.70;;;;;;;13.07;100.00;100764.72;5047872;28;20029;-81
2023/08/04 00:29:25;;;;;;;7.95;5.05;;;;;;;13.12;100.00;100773.03;5042091;28;20091;-82
2023/08/04 00:31:53;;;;;;;10.65;5.18;;;;;;;13.09;100.00;100773.47;5049405;28;20100;-82
2023/08/04 00:34:19;;;;;;;11.02;5.03;;;;;;;13.14;100.00;100774.47;5051181;28;20035;-82
2023/08/04 00:36:46;;;;;;;8.48;4.50;;;;;;;13.16;100.00;100775.06;5040697;28;20051;-82
2023/08/04 00:39:13;;;;;;;8.55;4.50;;;;;;;13.21;100.00;100781.72;5041505;28;20036;-82
2023/08/04 00:41:38;;;;;;;17.02;4.93;;;;;;;13.19;100.00;100790.03;5050734;28;20461;-82
2023/08/04 00:44:04;;;;;;;8.50;4.70;;;;;;;13.29;100.00;100786.84;5049105;28;20059;-82
2023/08/04 00:46:32;;;;;;;8.95;4.38;;;;;;;13.24;100.00;100792.09;5061427;28;20047;-82
2023/08/04 00:48:58;;;;;;;11.15;4.72;;;;;;;13.21;100.00;100790.63;5042850;28;20045;-82
2023/08/04 00:51:23;;;;;;;8.80;4.60;;;;;;;13.27;100.00;100791.66;5035835;28;20024;-81
2023/08/04 00:53:49;;;;;;;13.00;4.88;;;;;;;13.16;100.00;100791.28;5030277;28;20017;-82
2023/08/04 00:56:15;;;;;;;10.20;5.05;;;;;;;13.14;100.00;100797.97;5018610;28;20021;-82
2023/08/04 00:58:40;;;;;;;10.75;4.95;;;;;;;13.14;100.00;100796.09;5031061;28;20036;-81
2023/08/04 01:01:06;;;;;;;8.80;4.88;;;;;;;13.04;100.00;100793.84;5040581;28;20060;-82
2023/08/04 01:03:34;;;;;;;10.95;4.85;;;;;;;13.01;100.00;100801.56;5051365;28;20029;-82
2023/08/04 01:06:21;;;;;;;12.00;5.38;;;;;;;12.93;100.00;100802.63;5033152;28;20025;-81
2023/08/04 01:09:15;;;;;;;;;;;;;;;12.92;100.00;100795.56;5017911;28;20036;-82
2023/08/04 01:11:50;;;;;;;9.43;4.85;;;;;;;12.96;100.00;100802.22;4979073;28;19927;-82
2023/08/04 01:14:15;;;;;;;8.80;4.75;;;;;;;12.98;100.00;100802.78;5017582;28;20031;-82
2023/08/04 01:16:40;;;;;;;7.18;4.82;;;;;;;12.99;100.00;100798.25;5031714;28;20029;-82
2023/08/04 01:19:06;;;;;;;9.13;4.82;;;;;;;12.88;100.00;100803.25;5050382;28;20060;-82
2023/08/04 01:21:41;;;;;;;9.35;5.40;;;;;;;12.84;100.00;100801.19;5051551;28;20146;-82
2023/08/04 01:24:06;;;;;;;10.18;5.35;;;;;;;12.82;100.00;100800.56;5045811;28;20033;-82
2023/08/04 01:26:33;;;;;;;10.25;5.35;;;;;;;12.85;100.00;100800.16;5041781;28;20366;-82
2023/08/04 01:28:58;;;;;;;10.63;5.78;;;;;;;12.83;100.00;100797.69;5005605;28;20116;-82
2023/08/04 01:31:24;;;;;;;13.13;5.38;;;;;;;12.81;100.00;100805.16;5018063;28;20022;-82
2023/08/04 01:33:52;;;;;;;9.63;5.30;;;;;;;12.97;100.00;100808.44;5015854;28;20029;-81
2023/08/04 01:36:17;;;;;;;6.00;4.72;;;;;;;13.05;100.00;100802.78;5038201;28;20033;-82
2023/08/04 01:38:43;;;;;;;10.35;4.95;;;;;;;13.15;100.00;100802.31;5030392;28;20032;-82
2023/08/04 01:41:08;;;;;;;10.50;4.85;;;;;;;13.16;100.00;100810.22;5044557;28;20029;-82
2023/08/04 01:43:36;;;;;;;9.63;5.38;;;;;;;13.23;100.00;100812.06;5020002;28;20036;-82
2023/08/04 01:46:02;;;;;;;7.38;5.43;;;;;;;13.13;100.00;100816.03;5045389;28;20029;-82
2023/08/04 01:48:27;;;;;;;10.15;5.60;;;;;;;13.15;100.00;100824.78;5042910;28;20075;-82
2023/08/04 01:50:53;;;;;;;9.68;5.43;;;;;;;13.13;100.00;100824.16;5049161;28;20029;-82
2023/08/04 01:53:18;;;;;;;9.77;5.90;;;;;;;13.20;100.00;100824.13;5044345;28;20041;-81
2023/08/04 01:55:47;;;;;;;8.88;5.45;;;;;;;13.14;100.00;100828.53;5048004;28;20021;-81
2023/08/04 01:58:12;;;;;;;9.68;5.68;;;;;;;13.03;100.00;100823.78;5037425;28;20092;-81
2023/08/04 02:00:38;;;;;;;9.38;5.88;;;;;;;13.04;100.00;100826.28;5030108;28;20026;-82
2023/08/04 02:03:03;;;;;;;9.70;5.47;;;;;;;13.08;100.00;100834.78;5047308;28;20029;-81
2023/08/04 02:05:28;;;;;;;12.23;5.85;;;;;;;12.86;100.00;100835.09;5044304;28;20388;-81
2023/08/04 02:07:54;;;;;;;12.80;5.95;;;;;;;12.70;100.00;100846.34;5038946;28;20426;-81
2023/08/04 02:10:19;;;;;;;11.80;5.95;;;;;;;12.72;100.00;100839.69;5031911;28;20025;-82
2023/08/04 02:12:45;;;;;;;12.02;6.43;;;;;;;12.74;100.00;100836.75;5049812;28;20032;-82
2023/08/04 02:15:10;;;;;;;14.13;6.53;;;;;;;12.65;100.00;100848.84;5038002;28;20082;-81
2023/08/04 02:17:36;;;;;;;10.52;6.60;;;;;;;12.62;100.00;100846.56;5041154;28;20036;-82
2023/08/04 02:20:02;;;;;;;12.63;6.90;;;;;;;12.71;100.00;100853.38;5032260;28;20373;-81
2023/08/04 02:22:27;;;;;;;13.63;7.32;;;;;;;12.74;100.00;100852.97;5043424;28;20032;-81
2023/08/04 02:24:53;;;;;;;11.20;7.07;;;;;;;12.82;100.00;100851.91;5042042;28;20071;-83
2023/08/04 02:27:18;;;;;;;12.70;7.85;;;;;;;12.67;100.00;100858.38;5045238;28;20044;-82
2023/08/04 02:29:43;;;;;;;12.15;7.25;;;;;;;12.66;100.00;100853.22;5041030;28;20348;-82
2023/08/04 02:32:10;;;;;;;10.85;7.20;;;;;;;12.72;100.00;100863.16;5037204;28;20033;-81
2023/08/04 02:34:36;;;;;;;12.95;7.10;;;;;;;12.76;100.00;100861.69;5051359;28;20041;-82
2023/08/04 02:37:01;;;;;;;11.88;7.22;;;;;;;12.70;100.00;100862.56;5042196;28;20579;-81
2023/08/04 02:39:27;;;;;;;11.20;7.72;;;;;;;12.69;100.00;100866.28;5052357;28;20032;-83
2023/08/04 02:41:53;;;;;;;12.77;7.72;;;;;;;12.59;100.00;100867.53;5037367;28;20021;-82
2023/08/04 02:44:18;;;;;;;15.43;8.10;;;;;;;12.53;100.00;100868.38;5045363;28;20021;-82
2023/08/04 02:46:45;;;;;;;18.50;8.35;;;;;;;12.53;100.00;100867.56;5047590;28;20079;-82
2023/08/04 02:49:10;;;;;;;17.80;8.52;;;;;;;12.58;100.00;100865.88;5041206;28;20048;-82
2023/08/04 02:51:35;;;;;;;13.35;7.65;;;;;;;12.58;100.00;100857.78;5039846;28;20542;-82
2023/08/04 02:54:01;;;;;;;14.02;8.02;;;;;;;12.57;100.00;100858.00;5053125;28;20033;-81
2023/08/04 02:56:26;;;;;;;15.70;8.27;;;;;;;12.58;100.00;100860.47;5043950;28;20021;-82
2023/08/04 02:58:52;;;;;;;15.45;8.05;;;;;;;12.50;100.00;100863.41;5044647;28;20017;-82
2023/08/04 03:01:17;;;;;;;14.07;7.85;;;;;;;12.47;100.00;100871.94;5042610;28;20037;-82
2023/08/04 03:03:42;;;;;;;13.90;8.32;;;;;;;12.42;100.00;100866.31;5050664;28;20432;-82
2023/08/04 03:06:08;;;;;;;15.50;8.02;;;;;;;12.38;100.00;100865.91;5042157;28;20064;-82
2023/08/04 03:08:33;;;;;;;12.13;7.45;;;;;;;12.36;100.00;100867.13;5048248;28;20400;-82
2023/08/04 03:10:59;;;;;;;14.50;8.23;;;;;;;12.35;100.00;100865.50;5036857;28;20489;-82
2023/08/04 03:13:24;;;;;;;14.05;8.00;;;;;;;12.42;100.00;100869.00;5036515;28;20036;-82
2023/08/04 03:16:00;;;;;;;17.73;8.30;;;;;;;12.44;100.00;100872.34;5049588;28;20017;-82
2023/08/04 03:18:26;;;;;;;14.07;8.05;;;;;;;12.39;100.00;100866.72;5049516;28;20025;-82
2023/08/04 03:20:51;;;;;;;14.90;8.38;;;;;;;12.48;100.00;100864.63;5039247;28;20384;-82
2023/08/04 03:23:17;;;;;;;16.25;7.97;;;;;;;12.47;100.00;100882.72;5042960;28;20107;-81
2023/08/04 03:25:42;;;;;;;15.57;7.85;;;;;;;12.62;100.00;100878.97;5050915;28;20439;-82
2023/08/04 03:28:10;;;;;;;18.90;8.13;;;;;;;12.62;100.00;100882.47;5036780;28;20495;-82
2023/08/04 03:30:36;;;;;;;13.77;7.60;;;;;;;12.57;100.00;100893.91;5052207;28;20025;-82
2023/08/04 03:33:01;;;;;;;15.25;8.25;;;;;;;12.51;100.00;100897.47;5011233;28;20028;-82
2023/08/04 03:35:27;;;;;;;15.00;8.32;;;;;;;12.60;100.00;100898.09;5049536;28;20907;-82
2023/08/04 03:37:52;;;;;;;17.58;8.05;;;;;;;12.62;100.00;100895.97;5052462;28;20424;-82
2023/08/04 03:40:17;;;;;;;16.45;7.78;;;;;;;12.65;100.00;100892.06;5035350;28;20405;-82
2023/08/04 03:42:43;;;;;;;13.15;7.70;;;;;;;12.67;100.00;100901.59;5038991;28;20025;-82
2023/08/04 03:45:11;;;;;;;16.25;8.43;;;;;;;12.62;100.00;100901.38;5034326;28;20045;-82
2023/08/04 03:47:37;;;;;;;12.30;7.60;;;;;;;12.64;100.00;100895.78;5036873;28;20431;-83
2023/08/04 03:50:03;;;;;;;14.05;8.10;;;;;;;12.66;100.00;100901.81;5040085;28;20037;-82
2023/08/04 03:52:31;;;;;;;12.45;8.07;;;;;;;12.58;100.00;100902.88;5051094;28;20029;-82
2023/08/04 03:54:57;;;;;;;13.77;7.82;;;;;;;12.63;100.00;100899.53;5041291;28;20041;-83
2023/08/04 03:57:22;;;;;;;12.52;7.57;;;;;;;12.67;100.00;100896.19;5045827;28;20037;-79
2023/08/04 03:59:48;;;;;;;17.95;8.43;;;;;;;12.62;100.00;100895.16;5032140;28;20441;-77
2023/08/04 04:02:13;;;;;;;18.02;8.18;;;;;;;12.68;100.00;100902.44;5041335;28;20029;-77
2023/08/04 04:04:39;;;;;;;14.18;7.90;;;;;;;12.74;100.00;100898.88;5049937;28;20025;-77
2023/08/04 04:07:05;;;;;;;16.90;7.93;;;;;;;12.73;100.00;100889.13;5045911;28;20048;-77
2023/08/04 04:09:30;;;;;;;17.00;8.48;;;;;;;12.84;100.00;100895.75;5034915;28;20029;-77
2023/08/04 04:11:55;;;;;;;18.48;7.55;;;;;;;12.76;100.00;100898.69;5044690;28;20436;-77
2023/08/04 04:14:21;;;;;;;18.05;7.55;;;;;;;12.71;100.00;100907.41;5034734;28;20037;-77
2023/08/04 04:16:46;;;;;;;13.80;7.68;;;;;;;12.70;100.00;100911.16;5037313;28;20423;-77
2023/08/04 04:19:11;;;;;;;16.40;7.90;;;;;;;12.69;100.00;100907.63;5050347;28;20029;-77
2023/08/04 04:21:37;;;;;;;12.35;7.63;;;;;;;12.69;100.00;100918.44;5047932;28;20123;-77
2023/08/04 04:24:03;;;;;;;19.85;8.13;;;;;;;12.89;100.00;100926.50;5042991;28;20517;-77
2023/08/04 04:26:28;;;;;;;13.02;7.25;;;;;;;12.97;100.00;100921.91;5040016;28;20076;-77
2023/08/04 04:28:53;;;;;;;12.10;7.13;;;;;;;13.07;100.00;100924.19;5047315;28;20036;-77
2023/08/04 04:31:21;;;;;;;12.20;6.82;;;;;;;13.01;100.00;100929.38;5035064;28;20087;-77
2023/08/04 04:33:46;;;;;;;12.75;6.53;;;;;;;13.07;100.00;100927.69;5050012;28;20028;-76
2023/08/04 04:36:12;;;;;;;14.18;7.45;;;;;;;13.08;100.00;100926.66;5060512;28;20080;-76
2023/08/04 04:38:37;;;;;;;12.27;6.43;;;;;;;13.11;100.00;100930.84;5064026;28;20029;-77
2023/08/04 04:41:03;;;;;;;13.73;7.07;;;;;;;13.10;100.00;100930.00;5040055;28;20029;-77
2023/08/04 04:43:28;;;;;;;12.40;7.10;;;;;;;13.20;100.00;100932.25;5048932;28;20039;-77
2023/08/04 04:45:54;;;;;;;12.82;6.82;;;;;;;13.30;100.00;100923.69;5049416;28;20033;-77
2023/08/04 04:48:21;;;;;;;13.90;6.10;;;;;;;13.43;100.00;100934.47;5039474;28;20103;-77
2023/08/04 04:50:46;;;;;;;10.13;6.32;;;;;;;13.51;100.00;100935.31;5043034;28;20568;-77
2023/08/04 04:53:12;;;;;;;11.88;6.22;;;;;;;13.58;100.00;100938.81;5043855;28;20024;-77
2023/08/04 04:55:37;;;;;;;13.45;6.03;;;;;;;13.66;100.00;100938.56;5031879;28;20036;-77
2023/08/04 04:58:03;;;;;;;12.73;6.38;;;;;;;13.74;100.00;100934.78;5034848;28;20029;-77
2023/08/04 05:00:28;;;;;;;10.80;6.00;;;;;;;13.85;100.00;100938.69;5051798;28;20476;-77
2023/08/04 05:02:57;;;;;;;13.52;6.20;;;;;;;13.82;100.00;100939.09;5063060;22;20048;-77
2023/08/04 05:05:22;;;;;;;8.85;5.90;;;;;;;13.76;100.00;100938.94;5044103;28;20033;-77
2023/08/04 05:07:48;;;;;;;14.25;6.60;;;;;;;13.72;100.00;100937.72;5051639;28;20032;-77
2023/08/04 05:10:13;;;;;;;12.50;5.35;;;;;;;13.61;100.00;100944.63;5053410;28;20029;-75
2023/08/04 05:12:38;;;;;;;10.95;5.95;;;;;;;13.63;100.00;100941.69;5052737;28;20021;-76
2023/08/04 05:15:07;;;;;;;9.02;5.75;;;;;;;13.64;100.00;100946.06;5051079;28;20032;-77
2023/08/04 05:17:35;;;;;;;13.40;5.53;;;;;;;13.62;100.00;100948.13;5055237;28;20025;-76
2023/08/04 05:20:00;;;;;;;12.57;5.93;;;;;;;13.69;100.00;100948.09;5049891;28;20086;-76
2023/08/04 05:22:27;;;;;;;13.20;5.63;;;;;;;13.74;100.00;100948.31;5050778;28;20124;-76
2023/08/04 05:24:55;;;;;;;8.73;5.70;;;;;;;13.84;100.00;100947.84;5050746;28;20115;-76
2023/08/04 05:27:20;;;;;;;14.13;5.85;;;;;;;13.87;100.00;100958.22;5050165;28;20036;-77
2023/08/04 05:29:49;;;;;;;11.07;6.00;;;;;;;13.94;100.00;100959.84;5054919;28;20021;-77
2023/08/04 05:32:14;;;;;;;12.95;5.57;;;;;;;14.02;100.00;100958.78;5051384;28;20056;-77
2023/08/04 05:34:39;;;;;;;13.35;5.60;;;;;;;14.10;100.00;100957.69;5053349;28;20396;-77
2023/08/04 05:37:08;;;;;;;9.45;5.43;;;;;;;14.16;100.00;100967.66;5050916;28;20029;-78
2023/08/04 05:39:36;;;;;;;11.05;5.80;;;;;;;14.15;100.00;100959.72;5052899;28;20017;-78
2023/08/04 05:42:01;;;;;;;12.95;5.85;;;;;;;14.28;100.00;100970.50;5050012;28;20020;-77
2023/08/04 05:44:28;;;;;;;10.10;5.40;;;;;;;14.35;100.00;100970.44;5050460;28;20025;-77
2023/08/04 05:46:53;;;;;;;13.70;5.63;;;;;;;14.40;100.00;100979.56;5056557;28;20388;-77
2023/08/04 05:49:22;;;;;;;14.50;5.72;;;;;;;14.54;100.00;100980.31;5050076;28;20035;-77
2023/08/04 05:51:47;;;;;;;9.35;5.35;;;;;;;14.75;100.00;100982.88;5048719;28;20032;-77
2023/08/04 05:54:13;;;;;;;9.55;5.22;;;;;;;14.84;100.00;100984.22;5050606;28;20029;-77
2023/08/04 05:56:38;;;;;;;9.70;5.30;;;;;;;15.05;100.00;100984.88;5050209;28;20021;-77
2023/08/04 05:59:03;;;;;;;9.23;5.07;;;;;;;15.12;100.00;100991.09;5048778;28;20907;-77
2023/08/04 06:01:29;;;;;;;11.68;5.30;;;;;;;15.04;100.00;100988.63;5050261;28;20514;-77
2023/08/04 06:03:54;;;;;;;10.68;5.90;;;;;;;15.11;100.00;101002.97;5030265;28;20025;-77
2023/08/04 06:06:20;;;;;;;9.35;5.45;;;;;;;15.22;100.00;100999.50;5031237;28;20473;-77
2023/08/04 06:08:46;;;;;;;10.55;5.80;;;;;;;15.16;100.00;101003.16;5049916;28;20047;-77
2023/08/04 06:11:12;;;;;;;8.57;5.75;;;;;;;15.36;100.00;101002.06;5046485;28;20028;-77
2023/08/04 06:13:37;;;;;;;10.20;4.82;;;;;;;15.55;100.00;101008.34;5021905;28;20044;-77
2023/08/04 06:16:05;;;;;;;10.38;5.22;;;;;;;15.46;100.00;101010.53;5051146;28;20075;-78
2023/08/04 06:18:31;;;;;;;9.85;5.43;;;;;;;15.49;99.72;101010.09;5051518;28;20348;-77
2023/08/04 06:20:56;;;;;;;8.70;5.07;;;;;;;15.53;99.54;101008.56;5046414;28;20522;-77
2023/08/04 06:23:22;;;;;;;11.95;5.63;;;;;;;15.41;100.00;101015.81;5033459;28;20033;-77
2023/08/04 06:25:47;;;;;;;12.13;5.22;;;;;;;15.47;100.00;101014.91;5050277;28;20025;-77
2023/08/04 06:28:12;;;;;;;8.13;5.38;;;;;;;15.54;100.00;101021.06;5049826;28;20056;-77
2023/08/04 06:30:38;;;;;;;9.70;5.45;;;;;;;15.69;100.00;101015.28;5073372;28;20040;-80
2023/08/04 06:33:03;;;;;;;11.80;5.20;;;;;;;15.87;99.39;101025.34;5060767;28;20420;-79
2023/08/04 06:35:29;;;;;;;8.10;5.10;;;;;;;16.10;97.90;101022.94;5051647;28;20032;-80
2023/08/04 06:37:54;;;;;;;9.07;4.47;;;;;;;16.35;94.38;101015.47;5053369;28;20344;-78
2023/08/04 06:40:19;;;;;;;9.20;4.72;;;;;;;17.02;90.43;101029.94;5048939;28;20036;-79
2023/08/04 06:42:45;;;;;;;8.18;4.43;;;;;;;17.18;88.42;101038.44;5056233;28;20059;-86
2023/08/04 06:45:10;;;;;;;8.30;4.53;;;;;;;17.23;87.72;101036.66;5017127;28;20032;-82
2023/08/04 06:47:36;;;;;;;9.50;4.15;;;;;;;17.52;87.76;101044.09;5044317;28;20048;-78
2023/08/04 06:50:03;;;;;;;10.13;4.43;;;;;;;17.43;86.77;101041.75;5046383;28;20112;-85
2023/08/04 06:52:30;;;;;;;10.68;4.72;;;;;;;17.48;86.33;101042.91;5048848;28;20033;-83
2023/08/04 06:54:55;;;;;;;9.80;4.40;;;;;;;17.62;86.07;101055.22;5048974;28;20492;-83
2023/08/04 06:57:20;;;;;;;9.45;4.40;;;;;;;17.67;85.61;101049.88;5051003;28;20041;-84
2023/08/04 06:59:46;;;;;;;10.13;4.72;;;;;;;18.01;84.27;101051.94;5053989;28;20025;-83
2023/08/04 07:02:11;;;;;;;9.77;4.30;;;;;;;18.37;82.93;101055.38;5046358;28;20033;-82
2023/08/04 07:04:37;;;;;;;10.95;4.30;;;;;;;18.26;81.49;101058.97;5046502;28;20501;-82
2023/08/04 07:07:02;;;;;;;11.05;4.30;;;;;;;18.18;83.10;101062.88;5057274;28;20040;-81
2023/08/04 07:09:28;;;;;;;8.52;3.92;;;;;;;17.69;82.85;101061.34;5049355;28;20420;-83
2023/08/04 07:11:53;;;;;;;6.80;4.28;;;;;;;17.66;82.70;101066.44;5047696;28;20032;-81
2023/08/04 07:14:19;;;;;;;8.20;3.88;;;;;;;17.63;84.92;101064.19;5048128;28;20080;-82
2023/08/04 07:16:46;;;;;;;7.72;3.70;;;;;;;17.57;83.96;101074.16;5052386;28;20051;-86
2023/08/04 07:19:12;;;;;;;6.15;3.45;;;;;;;17.63;84.69;101066.94;5049081;28;20029;-87
2023/08/04 07:21:38;;;;;;;8.35;3.83;;;;;;;17.26;84.48;101074.28;5051689;28;20040;-84
2023/08/04 07:24:03;;;;;;;8.98;4.20;;;;;;;17.29;84.97;101078.44;5051832;28;20036;-84
2023/08/04 07:26:30;;;;;;;8.57;3.60;;;;;;;17.16;86.14;101075.94;5051196;28;20048;-83
2023/08/04 07:28:55;;;;;;;12.20;4.00;;;;;;;17.52;85.53;101076.75;5049300;28;20021;-82
2023/08/04 07:31:21;;;;;;;8.30;4.47;;;;;;;18.15;84.26;101077.84;5040196;28;20467;-80
2023/08/04 07:33:46;;;;;;;6.32;4.07;;;;;;;19.03;77.74;101079.41;5048380;28;20025;-82
2023/08/04 07:36:12;;;;;;;7.53;3.60;;;;;;;19.57;74.18;101079.94;5052962;28;20490;-81
2023/08/04 07:38:38;;;;;;;6.55;3.72;;;;;;;19.59;73.20;101086.81;5053133;28;20048;-80
2023/08/04 07:41:03;;;;;;;8.10;3.72;;;;;;;20.44;73.97;101086.50;5050418;28;20481;-81
2023/08/04 07:43:29;;;;;;;5.90;3.65;;;;;;;20.88;71.03;101082.81;5051186;28;20148;-81
2023/08/04 07:45:54;;;;;;;7.53;3.50;;;;;;;21.14;68.55;101082.19;5050891;28;20032;-81
2023/08/04 07:48:20;;;;;;;6.07;3.10;;;;;;;21.43;66.11;101082.66;5050402;28;20021;-82
2023/08/04 07:50:46;;;;;;;3.92;2.60;;;;;;;22.57;64.13;101083.13;5050796;28;20025;-82
2023/08/04 07:53:12;;;;;;;5.93;3.20;;;;;;;22.73;62.42;101083.97;5052795;28;20021;-82
2023/08/04 07:55:39;;;;;;;4.68;2.72;;;;;;;23.55;57.91;101088.59;5051770;28;20055;-82
2023/08/04 07:58:04;;;;;;;5.90;2.80;;;;;;;23.42;58.44;101095.50;5052801;28;20029;-82
2023/08/04 08:00:30;;;;;;;4.82;2.75;;;;;;;23.22;59.09;101084.53;5053223;28;20366;-82
2023/08/04 08:02:55;;;;;;;6.10;2.97;;;;;;;22.44;60.42;101083.66;5058240;28;20045;-81
2023/08/04 08:05:20;;;;;;;5.53;2.78;;;;;;;22.24;61.81;101079.75;5072702;28;20021;-81
2023/08/04 08:07:46;;;;;;;5.55;3.03;;;;;;;22.82;61.58;101090.56;5068838;28;20029;-81
2023/08/04 08:10:12;;;;;;;4.50;2.58;;;;;;;22.98;62.67;101085.06;5065909;28;20029;-82
2023/08/04 08:12:37;;;;;;;3.92;2.15;;;;;;;23.35;59.99;101092.19;5053667;28;20031;-81
2023/08/04 08:15:06;;;;;;;5.47;2.35;;;;;;;22.95;59.77;101096.59;5051938;28;20029;-81
2023/08/04 08:17:33;;;;;;;4.72;2.20;;;;;;;22.53;62.57;101084.75;5049767;28;20025;-81
2023/08/04 08:20:08;;;;;;;4.22;2.42;;;;;;;21.50;64.76;101093.38;5049295;28;20047;-81
2023/08/04 08:22:34;;;;;;;3.80;2.05;;;;;;;20.97;68.45;101093.28;5043481;28;20396;-81
2023/08/04 08:24:59;;;;;;;5.72;2.80;;;;;;;20.24;70.50;101097.19;5096901;22;20052;-80
2023/08/04 08:27:25;;;;;;;5.35;2.70;;;;;;;20.36;74.72;101100.59;5089284;28;20080;-81
2023/08/04 08:29:53;;;;;;;5.15;2.55;;;;;;;19.95;72.14;101098.22;5091441;28;20035;-81
2023/08/04 08:32:18;;;;;;;4.55;2.67;;;;;;;20.80;70.35;101099.69;5088175;28;20487;-81
2023/08/04 08:34:44;;;;;;;3.33;2.15;;;;;;;22.50;67.49;101113.56;5094740;28;20039;-81
2023/08/04 08:37:09;;;;;;;5.00;2.05;;;;;;;23.56;57.77;101116.88;5090624;28;20024;-81
2023/08/04 08:39:35;;;;;;;2.50;2.00;;;;;;;23.39;60.25;101112.53;5090208;28;20249;-81
2023/08/04 08:42:00;;;;;;;4.15;1.90;;;;;;;23.12;60.72;101115.53;5089115;28;20435;-81
2023/08/04 08:44:25;;;;;;;4.22;1.98;;;;;;;22.85;62.76;101119.41;5065564;28;20037;-80
2023/08/04 08:46:51;;;;;;;6.15;2.13;;;;;;;21.86;65.42;101115.53;5077650;28;20016;-82
2023/08/04 08:49:16;;;;;;;7.00;1.98;;;;;;;21.50;66.88;101112.56;5060951;28;20023;-80
2023/08/04 08:51:42;;;;;;;4.88;2.00;;;;;;;21.07;66.32;101115.28;5065839;28;20024;-80
2023/08/04 08:54:08;;;;;;;3.05;1.83;;;;;;;21.70;63.61;101116.53;5067091;28;20150;-80
2023/08/04 08:56:33;;;;;;;4.00;1.77;;;;;;;21.47;67.72;101108.41;5061117;28;20107;-80
2023/08/04 08:58:58;;;;;;;3.35;1.40;;;;;;;21.76;63.96;101118.19;5074976;28;20028;-80
2023/08/04 09:01:24;;;;;;;2.40;1.55;;;;;;;22.04;59.46;101116.16;5062501;28;20020;-80
2023/08/04 09:03:49;;;;;;;4.30;1.92;;;;;;;22.82;61.64;101120.75;5077467;28;20034;-80
2023/08/04 09:06:14;;;;;;;3.63;1.70;;;;;;;22.22;61.06;101120.31;5059588;28;20324;-79
2023/08/04 09:08:40;;;;;;;2.40;1.52;;;;;;;22.64;60.02;101124.84;5082381;28;20027;-80
2023/08/04 09:11:06;;;;;;;3.00;1.67;;;;;;;23.59;61.56;101132.81;5088828;28;20506;-79
2023/08/04 09:13:31;;;;;;;2.60;1.60;;;;;;;24.88;54.61;101124.00;5081471;28;20032;-81
2023/08/04 09:16:00;;;;;;;2.38;1.42;;;;;;;25.22;53.13;101127.81;5088356;28;20222;-81
2023/08/04 09:18:29;;;;;;;4.00;1.85;;;;;;;25.75;51.88;101129.81;5087053;28;20032;-80
2023/08/04 09:21:01;;;;;;;2.58;1.60;;;;;;;25.32;50.69;101130.50;5081950;28;20034;-80
2023/08/04 09:23:30;;;;;;;3.92;1.58;;;;;;;24.92;52.43;101136.06;5062153;28;20048;-78
2023/08/04 09:25:58;;;;;;;2.45;1.50;;;;;;;24.38;51.74;101133.06;5087978;28;20024;-80
2023/08/04 09:28:25;;;;;;;4.07;1.70;;;;;;;22.94;54.17;101134.22;5079969;28;20033;-80
2023/08/04 09:31:07;;;;;;;2.20;1.52;;;;;;;22.85;56.54;101127.63;5084142;28;20031;-80
2023/08/04 09:33:36;;;;;;;2.28;1.60;;;;;;;23.07;54.27;101137.50;5069565;28;20043;-81
2023/08/04 09:36:12;;;;;;;3.38;1.80;;;;;;;22.54;58.91;101139.38;5082855;28;20029;-81
2023/08/04 09:38:38;;;;;;;5.75;1.90;;;;;;;21.59;59.99;101132.06;5086223;28;20020;-80
2023/08/04 09:41:08;;;;;;;4.32;2.10;;;;;;;21.23;60.64;101140.84;5082086;28;20039;-79
2023/08/04 09:43:36;;;;;;;3.65;1.83;;;;;;;21.27;60.94;101136.50;5083425;28;20019;-78
2023/08/04 09:46:03;;;;;;;3.30;2.03;;;;;;;20.90;64.04;101137.28;5082468;28;20060;-79
2023/08/04 09:48:29;;;;;;;4.03;2.38;;;;;;;20.32;66.84;101126.00;5085768;28;20020;-80
2023/08/04 09:51:14;;;;;;;3.70;1.90;;;;;;;20.74;66.04;101119.84;5091298;28;20035;-79
2023/08/04 09:53:48;;;;;;;3.22;1.63;;;;;;;;;;5088216;28;20051;-80
2023/08/04 09:56:17;;;;;;;2.38;1.67;;;;;;;20.40;67.06;101129.09;5076232;28;20551;-80
2023/08/04 09:58:43;;;;;;;3.65;1.70;;;;;;;21.29;66.11;101134.31;5074460;28;20075;-78
2023/08/04 10:01:09;;;;;;;3.22;1.60;;;;;;;22.96;59.63;101148.50;5072950;28;20418;-79
2023/08/04 10:03:36;;;;;;;3.22;1.60;;;;;;;23.19;57.75;101135.31;5079256;28;20043;-78
2023/08/04 10:06:03;;;;;;;2.17;1.60;;;;;;;22.29;59.33;101136.50;5088183;28;20570;-78
2023/08/04 10:08:32;;;;;;;1.92;1.50;;;;;;;23.13;59.07;101139.97;5084718;28;20028;-78
2023/08/04 10:10:58;;;;;;;2.80;1.48;;;;;;;23.80;57.61;101139.06;5079513;28;20536;-78
2023/08/04 10:13:29;;;;;;;3.20;1.50;;;;;;;24.52;57.12;101137.97;5083454;28;20104;-76
2023/08/04 10:15:54;;;;;;;2.65;1.75;;;;;;;25.49;55.46;101134.78;5067116;28;20502;-78
2023/08/04 10:18:20;;;;;;;2.10;1.60;;;;;;;25.01;52.06;101141.78;5087429;28;20040;-80
2023/08/04 10:20:45;;;;;;;3.45;1.85;;;;;;;24.29;54.17;101131.19;5086678;28;20028;-79
2023/08/04 10:23:12;;;;;;;3.40;1.77;;;;;;;25.27;52.28;101131.34;5088885;28;20110;-78
2023/08/04 10:25:38;;;;;;;1.77;1.50;;;;;;;27.83;46.49;101150.41;5070106;28;20102;-78
2023/08/04 10:28:03;;;;;;;2.85;1.70;;;;;;;27.76;47.29;101148.06;5056154;28;20076;-77
2023/08/04 10:30:28;;;;;;;2.85;1.52;;;;;;;26.74;46.80;101148.69;5086874;28;20497;-78
2023/08/04 10:32:54;;;;;;;3.08;1.83;;;;;;;25.73;52.04;101149.38;5049975;28;20429;-78
2023/08/04 10:35:21;;;;;;;2.80;1.65;;;;;;;24.56;55.59;101144.53;5053162;28;20112;-77
2023/08/04 10:37:50;;;;;;;3.47;1.83;;;;;;;23.53;59.18;101145.75;5088494;28;20021;-78
2023/08/04 10:40:30;;;;;;;3.15;1.95;;;;;;;22.42;63.65;101155.22;5079754;28;20044;-77
2023/08/04 10:43:08;;;;;;;2.50;2.00;;;;;;;22.37;63.29;101149.72;5070936;28;20035;-77
2023/08/04 10:45:53;;;;;;;2.75;2.03;;;;;;;21.79;64.55;101142.34;5081501;28;20024;-78
2023/08/04 10:48:20;;;;;;;2.90;2.13;;;;;;;21.11;65.37;101142.94;5085707;28;20032;-78
2023/08/04 10:50:46;;;;;;;3.70;2.00;;;;;;;21.13;68.40;101146.25;5091647;28;20320;-77
2023/08/04 10:53:11;;;;;;;2.80;1.90;;;;;;;21.27;67.52;101146.63;5069453;28;20404;-78
2023/08/04 10:55:37;;;;;;;2.50;1.98;;;;;;;21.45;67.08;101143.47;5072468;28;20028;-78
2023/08/04 10:58:13;;;;;;;3.42;2.00;;;;;;;21.68;64.39;101146.13;5057615;28;20046;-77
2023/08/04 11:00:42;;;;;;;3.33;2.10;;;;;;;21.58;66.89;101157.81;5083163;28;20034;-77
2023/08/04 11:03:11;;;;;;;3.50;2.00;;;;;;;21.50;66.83;101167.34;5081652;28;20111;-77
2023/08/04 11:05:36;;;;;;;1.20;1.10;;;;;;;21.11;67.47;101164.84;5086349;28;20044;-77
2023/08/04 11:08:01;;;;;;;2.67;1.40;;;;;;;20.54;69.01;101175.19;5091201;28;20024;-78
2023/08/04 11:10:27;;;;;;;7.22;2.03;;;;;;;19.72;72.83;101181.22;5091697;28;20020;-82
2023/08/04 11:12:52;;;;;;;8.50;2.58;;;;;;;19.10;77.58;101182.94;5057840;28;20078;-84